sensor_id;sensor_type;location;lat;lon;timestamp;P1;durP1;ratioP1;P2;durP2;ratioP2
5363;SDS011;2705;41.410;2.160;2022-12-07T00:01:49;45.30;;;29.60;;
5363;SDS011;2705;41.410;2.160;2022-12-07T00:04:18;47.77;;;28.20;;
5363;SDS011;2705;41.410;2.160;2022-12-07T00:06:50;45.13;;;27.80;;
5363;SDS011;2705;41.410;2.160;2022-12-07T00:09:21;44.27;;;28.93;;
5363;SDS011;2705;41.410;2.160;2022-12-07T00:11:50;43.30;;;27.90;;
5363;SDS011;2705;41.410;2.160;2022-12-07T00:14:20;42.33;;;27.97;;
5363;SDS011;2705;41.410;2.160;2022-12-07T00:16:49;44.17;;;27.60;;
5363;SDS011;2705;41.410;2.160;2022-12-07T00:19:19;42.33;;;27.80;;
5363;SDS011;2705;41.410;2.160;2022-12-07T00:21:49;42.57;;;27.67;;
5363;SDS011;2705;41.410;2.160;2022-12-07T00:24:18;42.30;;;27.67;;
5363;SDS011;2705;41.410;2.160;2022-12-07T00:26:49;41.73;;;27.70;;
5363;SDS011;2705;41.410;2.160;2022-12-07T00:29:19;45.90;;;29.10;;
5363;SDS011;2705;41.410;2.160;2022-12-07T00:31:50;36.27;;;26.50;;
5363;SDS011;2705;41.410;2.160;2022-12-07T00:34:19;44.23;;;26.87;;
5363;SDS011;2705;41.410;2.160;2022-12-07T00:36:50;45.40;;;28.33;;
5363;SDS011;2705;41.410;2.160;2022-12-07T00:39:19;39.63;;;26.03;;
5363;SDS011;2705;41.410;2.160;2022-12-07T00:41:49;44.03;;;26.30;;
5363;SDS011;2705;41.410;2.160;2022-12-07T00:44:19;41.17;;;26.90;;
5363;SDS011;2705;41.410;2.160;2022-12-07T00:46:48;41.83;;;27.10;;
5363;SDS011;2705;41.410;2.160;2022-12-07T00:49:17;44.00;;;28.03;;
5363;SDS011;2705;41.410;2.160;2022-12-07T00:51:47;49.93;;;28.17;;
5363;SDS011;2705;41.410;2.160;2022-12-07T00:54:17;39.77;;;26.20;;
5363;SDS011;2705;41.410;2.160;2022-12-07T00:56:46;46.00;;;27.83;;
5363;SDS011;2705;41.410;2.160;2022-12-07T00:59:17;46.80;;;28.33;;
5363;SDS011;2705;41.410;2.160;2022-12-07T01:01:46;46.17;;;29.07;;
5363;SDS011;2705;41.410;2.160;2022-12-07T01:04:15;46.90;;;29.30;;
5363;SDS011;2705;41.410;2.160;2022-12-07T01:06:44;40.60;;;26.63;;
5363;SDS011;2705;41.410;2.160;2022-12-07T01:09:14;44.00;;;27.53;;
5363;SDS011;2705;41.410;2.160;2022-12-07T01:11:43;47.73;;;28.87;;
5363;SDS011;2705;41.410;2.160;2022-12-07T01:14:12;47.33;;;28.23;;
5363;SDS011;2705;41.410;2.160;2022-12-07T01:16:43;53.13;;;31.33;;
5363;SDS011;2705;41.410;2.160;2022-12-07T01:19:12;45.23;;;29.27;;
5363;SDS011;2705;41.410;2.160;2022-12-07T01:21:42;40.87;;;26.23;;
5363;SDS011;2705;41.410;2.160;2022-12-07T01:24:11;47.67;;;29.40;;
5363;SDS011;2705;41.410;2.160;2022-12-07T01:26:40;44.87;;;27.97;;
5363;SDS011;2705;41.410;2.160;2022-12-07T01:29:10;47.80;;;29.17;;
5363;SDS011;2705;41.410;2.160;2022-12-07T01:31:39;43.20;;;28.60;;
5363;SDS011;2705;41.410;2.160;2022-12-07T01:34:10;45.37;;;29.37;;
5363;SDS011;2705;41.410;2.160;2022-12-07T01:36:39;44.10;;;27.97;;
5363;SDS011;2705;41.410;2.160;2022-12-07T01:39:09;45.27;;;29.67;;
5363;SDS011;2705;41.410;2.160;2022-12-07T01:41:39;46.10;;;29.90;;
5363;SDS011;2705;41.410;2.160;2022-12-07T01:44:12;45.27;;;30.00;;
5363;SDS011;2705;41.410;2.160;2022-12-07T01:46:43;44.50;;;27.17;;
5363;SDS011;2705;41.410;2.160;2022-12-07T01:49:14;38.60;;;27.80;;
5363;SDS011;2705;41.410;2.160;2022-12-07T01:51:45;43.60;;;28.50;;
5363;SDS011;2705;41.410;2.160;2022-12-07T01:54:15;43.60;;;27.80;;
5363;SDS011;2705;41.410;2.160;2022-12-07T01:56:46;46.67;;;28.97;;
5363;SDS011;2705;41.410;2.160;2022-12-07T01:59:18;43.40;;;26.90;;
5363;SDS011;2705;41.410;2.160;2022-12-07T02:01:48;46.80;;;29.67;;
5363;SDS011;2705;41.410;2.160;2022-12-07T02:04:19;45.53;;;29.93;;
5363;SDS011;2705;41.410;2.160;2022-12-07T02:06:50;42.57;;;28.07;;
5363;SDS011;2705;41.410;2.160;2022-12-07T02:09:19;47.23;;;30.47;;
5363;SDS011;2705;41.410;2.160;2022-12-07T02:11:48;42.30;;;28.10;;
5363;SDS011;2705;41.410;2.160;2022-12-07T02:14:18;46.23;;;28.13;;
5363;SDS011;2705;41.410;2.160;2022-12-07T02:16:51;44.60;;;29.30;;
5363;SDS011;2705;41.410;2.160;2022-12-07T02:19:34;42.20;;;27.97;;
5363;SDS011;2705;41.410;2.160;2022-12-07T02:22:11;43.20;;;27.23;;
5363;SDS011;2705;41.410;2.160;2022-12-07T02:24:48;45.37;;;28.30;;
5363;SDS011;2705;41.410;2.160;2022-12-07T02:27:32;45.13;;;27.83;;
5363;SDS011;2705;41.410;2.160;2022-12-07T02:30:05;43.50;;;27.87;;
5363;SDS011;2705;41.410;2.160;2022-12-07T02:32:43;45.60;;;28.23;;
5363;SDS011;2705;41.410;2.160;2022-12-07T02:35:15;45.87;;;29.70;;
5363;SDS011;2705;41.410;2.160;2022-12-07T02:37:52;44.20;;;28.30;;
5363;SDS011;2705;41.410;2.160;2022-12-07T02:40:23;45.57;;;27.47;;
5363;SDS011;2705;41.410;2.160;2022-12-07T02:42:56;46.73;;;29.40;;
5363;SDS011;2705;41.410;2.160;2022-12-07T02:45:28;50.60;;;29.40;;
5363;SDS011;2705;41.410;2.160;2022-12-07T02:47:58;41.50;;;25.63;;
5363;SDS011;2705;41.410;2.160;2022-12-07T02:50:29;47.57;;;28.53;;
5363;SDS011;2705;41.410;2.160;2022-12-07T02:52:58;44.27;;;28.87;;
5363;SDS011;2705;41.410;2.160;2022-12-07T02:55:28;42.87;;;27.97;;
5363;SDS011;2705;41.410;2.160;2022-12-07T02:58:06;39.43;;;27.90;;
5363;SDS011;2705;41.410;2.160;2022-12-07T03:00:40;45.07;;;29.90;;
5363;SDS011;2705;41.410;2.160;2022-12-07T03:03:13;47.20;;;30.87;;
5363;SDS011;2705;41.410;2.160;2022-12-07T03:05:53;43.73;;;28.93;;
5363;SDS011;2705;41.410;2.160;2022-12-07T03:08:25;42.33;;;28.17;;
5363;SDS011;2705;41.410;2.160;2022-12-07T03:10:58;43.20;;;27.90;;
5363;SDS011;2705;41.410;2.160;2022-12-07T03:13:28;42.43;;;28.70;;
5363;SDS011;2705;41.410;2.160;2022-12-07T03:16:02;40.13;;;27.07;;
5363;SDS011;2705;41.410;2.160;2022-12-07T03:18:34;47.30;;;29.17;;
5363;SDS011;2705;41.410;2.160;2022-12-07T03:21:06;43.70;;;28.77;;
5363;SDS011;2705;41.410;2.160;2022-12-07T03:23:37;45.50;;;28.67;;
5363;SDS011;2705;41.410;2.160;2022-12-07T03:26:08;41.67;;;27.83;;
5363;SDS011;2705;41.410;2.160;2022-12-07T03:28:39;40.77;;;26.43;;
5363;SDS011;2705;41.410;2.160;2022-12-07T03:31:11;41.80;;;27.60;;
5363;SDS011;2705;41.410;2.160;2022-12-07T03:33:44;43.70;;;26.80;;
5363;SDS011;2705;41.410;2.160;2022-12-07T03:36:16;42.03;;;27.40;;
5363;SDS011;2705;41.410;2.160;2022-12-07T03:38:47;40.03;;;27.30;;
5363;SDS011;2705;41.410;2.160;2022-12-07T03:41:18;38.60;;;25.03;;
5363;SDS011;2705;41.410;2.160;2022-12-07T03:43:49;43.00;;;25.43;;
5363;SDS011;2705;41.410;2.160;2022-12-07T03:46:20;39.40;;;27.03;;
5363;SDS011;2705;41.410;2.160;2022-12-07T03:48:55;40.90;;;26.50;;
5363;SDS011;2705;41.410;2.160;2022-12-07T03:51:28;38.80;;;26.60;;
5363;SDS011;2705;41.410;2.160;2022-12-07T03:53:59;39.43;;;26.40;;
5363;SDS011;2705;41.410;2.160;2022-12-07T03:56:30;38.50;;;26.23;;
5363;SDS011;2705;41.410;2.160;2022-12-07T03:58:59;41.50;;;26.20;;
5363;SDS011;2705;41.410;2.160;2022-12-07T04:01:30;46.23;;;28.17;;
5363;SDS011;2705;41.410;2.160;2022-12-07T04:04:00;43.10;;;26.60;;
5363;SDS011;2705;41.410;2.160;2022-12-07T04:06:29;39.10;;;25.30;;
5363;SDS011;2705;41.410;2.160;2022-12-07T04:08:59;41.80;;;27.07;;
5363;SDS011;2705;41.410;2.160;2022-12-07T04:11:28;40.73;;;27.70;;
5363;SDS011;2705;41.410;2.160;2022-12-07T04:13:57;38.60;;;26.00;;
5363;SDS011;2705;41.410;2.160;2022-12-07T04:16:46;39.77;;;25.00;;
5363;SDS011;2705;41.410;2.160;2022-12-07T04:19:16;36.17;;;24.77;;
5363;SDS011;2705;41.410;2.160;2022-12-07T04:21:46;36.13;;;24.13;;
5363;SDS011;2705;41.410;2.160;2022-12-07T04:24:16;36.50;;;26.47;;
5363;SDS011;2705;41.410;2.160;2022-12-07T04:26:45;39.83;;;25.47;;
5363;SDS011;2705;41.410;2.160;2022-12-07T04:29:16;36.67;;;24.37;;
5363;SDS011;2705;41.410;2.160;2022-12-07T04:31:46;35.57;;;24.10;;
5363;SDS011;2705;41.410;2.160;2022-12-07T04:34:16;38.40;;;23.97;;
5363;SDS011;2705;41.410;2.160;2022-12-07T04:36:46;38.13;;;24.73;;
5363;SDS011;2705;41.410;2.160;2022-12-07T04:39:17;40.57;;;24.63;;
5363;SDS011;2705;41.410;2.160;2022-12-07T04:41:47;39.40;;;23.87;;
5363;SDS011;2705;41.410;2.160;2022-12-07T04:44:16;35.23;;;22.73;;
5363;SDS011;2705;41.410;2.160;2022-12-07T04:46:47;34.67;;;23.60;;
5363;SDS011;2705;41.410;2.160;2022-12-07T04:49:17;35.83;;;23.90;;
5363;SDS011;2705;41.410;2.160;2022-12-07T04:51:47;36.73;;;23.87;;
5363;SDS011;2705;41.410;2.160;2022-12-07T04:54:16;34.33;;;24.23;;
5363;SDS011;2705;41.410;2.160;2022-12-07T04:56:45;37.00;;;24.50;;
5363;SDS011;2705;41.410;2.160;2022-12-07T04:59:15;38.03;;;24.70;;
5363;SDS011;2705;41.410;2.160;2022-12-07T05:01:44;35.50;;;24.07;;
5363;SDS011;2705;41.410;2.160;2022-12-07T05:04:15;38.13;;;24.17;;
5363;SDS011;2705;41.410;2.160;2022-12-07T05:06:45;35.60;;;24.27;;
5363;SDS011;2705;41.410;2.160;2022-12-07T05:09:14;43.07;;;24.50;;
5363;SDS011;2705;41.410;2.160;2022-12-07T05:11:44;38.87;;;24.90;;
5363;SDS011;2705;41.410;2.160;2022-12-07T05:14:13;35.47;;;24.50;;
5363;SDS011;2705;41.410;2.160;2022-12-07T05:16:43;37.37;;;25.67;;
5363;SDS011;2705;41.410;2.160;2022-12-07T05:19:13;41.37;;;26.40;;
5363;SDS011;2705;41.410;2.160;2022-12-07T05:21:43;40.63;;;25.13;;
5363;SDS011;2705;41.410;2.160;2022-12-07T05:24:13;34.83;;;24.10;;
5363;SDS011;2705;41.410;2.160;2022-12-07T05:26:43;38.03;;;25.87;;
5363;SDS011;2705;41.410;2.160;2022-12-07T05:29:13;37.10;;;24.57;;
5363;SDS011;2705;41.410;2.160;2022-12-07T05:31:43;37.53;;;25.47;;
5363;SDS011;2705;41.410;2.160;2022-12-07T05:34:13;35.20;;;23.20;;
5363;SDS011;2705;41.410;2.160;2022-12-07T05:36:44;40.30;;;22.83;;
5363;SDS011;2705;41.410;2.160;2022-12-07T05:39:13;35.47;;;25.03;;
5363;SDS011;2705;41.410;2.160;2022-12-07T05:41:42;36.13;;;23.03;;
5363;SDS011;2705;41.410;2.160;2022-12-07T05:44:29;35.70;;;23.30;;
5363;SDS011;2705;41.410;2.160;2022-12-07T05:46:58;0.87;;;0.87;;
5363;SDS011;2705;41.410;2.160;2022-12-07T05:49:27;34.03;;;22.40;;
5363;SDS011;2705;41.410;2.160;2022-12-07T05:51:58;1.07;;;1.07;;
5363;SDS011;2705;41.410;2.160;2022-12-07T05:54:27;1.10;;;1.10;;
5363;SDS011;2705;41.410;2.160;2022-12-07T05:56:56;1.00;;;1.00;;
5363;SDS011;2705;41.410;2.160;2022-12-07T05:59:26;0.90;;;0.90;;
5363;SDS011;2705;41.410;2.160;2022-12-07T06:01:55;0.90;;;0.90;;
5363;SDS011;2705;41.410;2.160;2022-12-07T06:04:25;1.03;;;1.03;;
5363;SDS011;2705;41.410;2.160;2022-12-07T06:06:54;1.50;;;1.43;;
5363;SDS011;2705;41.410;2.160;2022-12-07T06:09:26;2.80;;;2.20;;
5363;SDS011;2705;41.410;2.160;2022-12-07T06:11:55;0.80;;;0.80;;
5363;SDS011;2705;41.410;2.160;2022-12-07T06:14:42;0.97;;;0.97;;
5363;SDS011;2705;41.410;2.160;2022-12-07T06:17:12;0.87;;;0.87;;
5363;SDS011;2705;41.410;2.160;2022-12-07T06:19:41;1.07;;;1.07;;
5363;SDS011;2705;41.410;2.160;2022-12-07T06:22:11;0.97;;;0.97;;
5363;SDS011;2705;41.410;2.160;2022-12-07T06:24:42;0.90;;;0.90;;
5363;SDS011;2705;41.410;2.160;2022-12-07T06:27:11;2.67;;;2.47;;
5363;SDS011;2705;41.410;2.160;2022-12-07T06:29:41;0.93;;;0.93;;
5363;SDS011;2705;41.410;2.160;2022-12-07T06:32:10;1.97;;;1.87;;
5363;SDS011;2705;41.410;2.160;2022-12-07T06:34:39;1.10;;;1.10;;
5363;SDS011;2705;41.410;2.160;2022-12-07T06:37:09;0.97;;;0.97;;
5363;SDS011;2705;41.410;2.160;2022-12-07T06:39:38;0.90;;;0.90;;
5363;SDS011;2705;41.410;2.160;2022-12-07T06:42:08;3.43;;;3.13;;
5363;SDS011;2705;41.410;2.160;2022-12-07T06:44:38;0.90;;;0.90;;
5363;SDS011;2705;41.410;2.160;2022-12-07T06:47:07;1.00;;;1.00;;
5363;SDS011;2705;41.410;2.160;2022-12-07T06:49:56;1.13;;;1.10;;
5363;SDS011;2705;41.410;2.160;2022-12-07T06:52:26;1.27;;;1.23;;
5363;SDS011;2705;41.410;2.160;2022-12-07T06:54:55;2.17;;;1.97;;
5363;SDS011;2705;41.410;2.160;2022-12-07T06:57:27;4.77;;;4.47;;
5363;SDS011;2705;41.410;2.160;2022-12-07T06:59:56;2.40;;;2.30;;
5363;SDS011;2705;41.410;2.160;2022-12-07T07:02:26;0.93;;;0.93;;
5363;SDS011;2705;41.410;2.160;2022-12-07T07:04:55;1.30;;;1.20;;
5363;SDS011;2705;41.410;2.160;2022-12-07T07:07:24;1.30;;;1.30;;
5363;SDS011;2705;41.410;2.160;2022-12-07T07:09:53;1.00;;;1.00;;
5363;SDS011;2705;41.410;2.160;2022-12-07T07:12:23;0.90;;;0.90;;
5363;SDS011;2705;41.410;2.160;2022-12-07T07:14:54;1.00;;;1.00;;
5363;SDS011;2705;41.410;2.160;2022-12-07T07:17:23;1.10;;;1.10;;
5363;SDS011;2705;41.410;2.160;2022-12-07T07:19:52;1.10;;;1.10;;
5363;SDS011;2705;41.410;2.160;2022-12-07T07:22:22;1.10;;;1.10;;
5363;SDS011;2705;41.410;2.160;2022-12-07T07:24:51;1.70;;;1.60;;
5363;SDS011;2705;41.410;2.160;2022-12-07T07:27:20;0.80;;;0.80;;
5363;SDS011;2705;41.410;2.160;2022-12-07T07:29:50;0.97;;;0.97;;
5363;SDS011;2705;41.410;2.160;2022-12-07T07:32:21;0.97;;;0.97;;
5363;SDS011;2705;41.410;2.160;2022-12-07T07:34:50;1.30;;;1.20;;
5363;SDS011;2705;41.410;2.160;2022-12-07T07:37:19;1.93;;;1.83;;
5363;SDS011;2705;41.410;2.160;2022-12-07T07:39:49;10.53;;;6.13;;
5363;SDS011;2705;41.410;2.160;2022-12-07T07:42:18;1.10;;;1.10;;
5363;SDS011;2705;41.410;2.160;2022-12-07T07:44:47;1.00;;;1.00;;
5363;SDS011;2705;41.410;2.160;2022-12-07T07:47:17;1.87;;;1.77;;
5363;SDS011;2705;41.410;2.160;2022-12-07T07:49:47;1.23;;;1.23;;
5363;SDS011;2705;41.410;2.160;2022-12-07T07:52:17;1.10;;;1.10;;
5363;SDS011;2705;41.410;2.160;2022-12-07T07:54:46;0.90;;;0.90;;
5363;SDS011;2705;41.410;2.160;2022-12-07T07:57:16;20.73;;;2.30;;
5363;SDS011;2705;41.410;2.160;2022-12-07T07:59:45;1.00;;;1.00;;
5363;SDS011;2705;41.410;2.160;2022-12-07T08:02:15;1.00;;;1.00;;
5363;SDS011;2705;41.410;2.160;2022-12-07T08:04:44;1.73;;;1.63;;
5363;SDS011;2705;41.410;2.160;2022-12-07T08:07:16;1.00;;;1.00;;
5363;SDS011;2705;41.410;2.160;2022-12-07T08:09:45;1.53;;;1.43;;
5363;SDS011;2705;41.410;2.160;2022-12-07T08:12:14;0.80;;;0.80;;
5363;SDS011;2705;41.410;2.160;2022-12-07T08:14:43;0.90;;;0.90;;
5363;SDS011;2705;41.410;2.160;2022-12-07T08:17:13;1.00;;;1.00;;
5363;SDS011;2705;41.410;2.160;2022-12-07T08:19:42;1.47;;;1.37;;
5363;SDS011;2705;41.410;2.160;2022-12-07T08:22:12;9.90;;;4.00;;
5363;SDS011;2705;41.410;2.160;2022-12-07T08:24:42;0.97;;;0.97;;
5363;SDS011;2705;41.410;2.160;2022-12-07T08:27:12;0.90;;;0.90;;
5363;SDS011;2705;41.410;2.160;2022-12-07T08:29:41;0.83;;;0.83;;
5363;SDS011;2705;41.410;2.160;2022-12-07T08:32:10;0.90;;;0.90;;
5363;SDS011;2705;41.410;2.160;2022-12-07T08:34:40;1.00;;;1.00;;
5363;SDS011;2705;41.410;2.160;2022-12-07T08:37:09;4.37;;;4.00;;
5363;SDS011;2705;41.410;2.160;2022-12-07T08:39:38;0.90;;;0.90;;
5363;SDS011;2705;41.410;2.160;2022-12-07T08:42:09;1.83;;;1.73;;
5363;SDS011;2705;41.410;2.160;2022-12-07T08:44:38;1.00;;;1.00;;
5363;SDS011;2705;41.410;2.160;2022-12-07T08:47:08;0.80;;;0.80;;
5363;SDS011;2705;41.410;2.160;2022-12-07T08:49:39;0.90;;;0.90;;
5363;SDS011;2705;41.410;2.160;2022-12-07T08:52:09;2.13;;;2.00;;
5363;SDS011;2705;41.410;2.160;2022-12-07T08:54:39;1.07;;;1.07;;
5363;SDS011;2705;41.410;2.160;2022-12-07T08:57:10;1.30;;;1.20;;
5363;SDS011;2705;41.410;2.160;2022-12-07T08:59:40;0.90;;;0.90;;
5363;SDS011;2705;41.410;2.160;2022-12-07T09:02:09;0.90;;;0.90;;
5363;SDS011;2705;41.410;2.160;2022-12-07T09:04:38;1.10;;;1.10;;
5363;SDS011;2705;41.410;2.160;2022-12-07T09:07:07;1.40;;;1.30;;
5363;SDS011;2705;41.410;2.160;2022-12-07T09:09:37;1.03;;;1.03;;
5363;SDS011;2705;41.410;2.160;2022-12-07T09:12:07;5.40;;;3.60;;
5363;SDS011;2705;41.410;2.160;2022-12-07T09:14:38;4.07;;;3.10;;
5363;SDS011;2705;41.410;2.160;2022-12-07T09:17:08;5.43;;;3.73;;
5363;SDS011;2705;41.410;2.160;2022-12-07T09:19:38;1.83;;;1.73;;
5363;SDS011;2705;41.410;2.160;2022-12-07T09:22:09;3.03;;;2.50;;
5363;SDS011;2705;41.410;2.160;2022-12-07T09:24:39;5.60;;;3.67;;
5363;SDS011;2705;41.410;2.160;2022-12-07T09:27:08;0.93;;;0.93;;
5363;SDS011;2705;41.410;2.160;2022-12-07T09:29:39;2.03;;;1.93;;
5363;SDS011;2705;41.410;2.160;2022-12-07T09:32:08;1.40;;;1.30;;
5363;SDS011;2705;41.410;2.160;2022-12-07T09:34:38;1.20;;;1.10;;
5363;SDS011;2705;41.410;2.160;2022-12-07T09:37:07;1.03;;;1.03;;
5363;SDS011;2705;41.410;2.160;2022-12-07T09:39:37;7.40;;;3.50;;
5363;SDS011;2705;41.410;2.160;2022-12-07T09:42:18;1.00;;;1.00;;
5363;SDS011;2705;41.410;2.160;2022-12-07T09:44:54;0.90;;;0.90;;
5363;SDS011;2705;41.410;2.160;2022-12-07T09:47:25;2.93;;;1.53;;
5363;SDS011;2705;41.410;2.160;2022-12-07T09:49:54;4.57;;;3.10;;
5363;SDS011;2705;41.410;2.160;2022-12-07T09:52:25;1.20;;;1.20;;
5363;SDS011;2705;41.410;2.160;2022-12-07T09:55:02;3.33;;;3.10;;
5363;SDS011;2705;41.410;2.160;2022-12-07T09:57:32;1.40;;;1.30;;
5363;SDS011;2705;41.410;2.160;2022-12-07T10:00:06;2.30;;;1.60;;
5363;SDS011;2705;41.410;2.160;2022-12-07T10:02:36;0.80;;;0.80;;
5363;SDS011;2705;41.410;2.160;2022-12-07T10:05:10;0.80;;;0.80;;
5363;SDS011;2705;41.410;2.160;2022-12-07T10:07:49;1.50;;;1.40;;
5363;SDS011;2705;41.410;2.160;2022-12-07T10:10:20;1.77;;;1.67;;
5363;SDS011;2705;41.410;2.160;2022-12-07T10:12:53;1.30;;;1.13;;
5363;SDS011;2705;41.410;2.160;2022-12-07T10:15:24;7.10;;;2.63;;
5363;SDS011;2705;41.410;2.160;2022-12-07T10:18:20;1.10;;;1.10;;
5363;SDS011;2705;41.410;2.160;2022-12-07T10:20:50;0.90;;;0.90;;
5363;SDS011;2705;41.410;2.160;2022-12-07T10:23:29;3.90;;;3.50;;
5363;SDS011;2705;41.410;2.160;2022-12-07T10:25:58;1.57;;;1.47;;
5363;SDS011;2705;41.410;2.160;2022-12-07T10:28:33;1.37;;;1.27;;
5363;SDS011;2705;41.410;2.160;2022-12-07T10:31:16;1.97;;;1.83;;
5363;SDS011;2705;41.410;2.160;2022-12-07T10:33:48;3.10;;;2.00;;
5363;SDS011;2705;41.410;2.160;2022-12-07T10:36:20;2.27;;;2.10;;
5363;SDS011;2705;41.410;2.160;2022-12-07T10:38:50;0.90;;;0.90;;
5363;SDS011;2705;41.410;2.160;2022-12-07T10:41:20;4.00;;;3.53;;
5363;SDS011;2705;41.410;2.160;2022-12-07T10:43:50;0.90;;;0.90;;
5363;SDS011;2705;41.410;2.160;2022-12-07T10:49:28;7.13;;;3.27;;
5363;SDS011;2705;41.410;2.160;2022-12-07T10:52:03;2.20;;;1.83;;
5363;SDS011;2705;41.410;2.160;2022-12-07T10:54:40;1.17;;;1.07;;
5363;SDS011;2705;41.410;2.160;2022-12-07T10:57:24;1.27;;;1.20;;
5363;SDS011;2705;41.410;2.160;2022-12-07T11:00:01;2.53;;;2.40;;
5363;SDS011;2705;41.410;2.160;2022-12-07T11:02:46;1.03;;;1.03;;
5363;SDS011;2705;41.410;2.160;2022-12-07T11:05:22;1.00;;;1.00;;
5363;SDS011;2705;41.410;2.160;2022-12-07T11:07:57;1.97;;;1.87;;
5363;SDS011;2705;41.410;2.160;2022-12-07T11:10:30;1.10;;;1.10;;
5363;SDS011;2705;41.410;2.160;2022-12-07T11:13:13;0.80;;;0.80;;
5363;SDS011;2705;41.410;2.160;2022-12-07T11:15:53;1.30;;;1.07;;
5363;SDS011;2705;41.410;2.160;2022-12-07T11:18:26;0.90;;;0.90;;
5363;SDS011;2705;41.410;2.160;2022-12-07T11:21:00;0.87;;;0.87;;
5363;SDS011;2705;41.410;2.160;2022-12-07T11:23:39;2.87;;;2.47;;
5363;SDS011;2705;41.410;2.160;2022-12-07T11:26:11;0.90;;;0.90;;
5363;SDS011;2705;41.410;2.160;2022-12-07T11:28:50;10.70;;;1.93;;
5363;SDS011;2705;41.410;2.160;2022-12-07T11:31:24;1.30;;;1.20;;
5363;SDS011;2705;41.410;2.160;2022-12-07T11:33:57;4.20;;;1.83;;
5363;SDS011;2705;41.410;2.160;2022-12-07T11:36:38;7.30;;;3.77;;
5363;SDS011;2705;41.410;2.160;2022-12-07T11:39:12;2.83;;;2.03;;
5363;SDS011;2705;41.410;2.160;2022-12-07T11:41:45;3.57;;;2.93;;
5363;SDS011;2705;41.410;2.160;2022-12-07T11:44:19;3.37;;;1.50;;
5363;SDS011;2705;41.410;2.160;2022-12-07T11:46:54;0.90;;;0.90;;
5363;SDS011;2705;41.410;2.160;2022-12-07T11:49:27;1.47;;;1.37;;
5363;SDS011;2705;41.410;2.160;2022-12-07T11:52:04;7.47;;;6.03;;
5363;SDS011;2705;41.410;2.160;2022-12-07T11:54:35;3.27;;;3.00;;
5363;SDS011;2705;41.410;2.160;2022-12-07T11:57:07;1.67;;;1.57;;
5363;SDS011;2705;41.410;2.160;2022-12-07T11:59:46;4.43;;;2.87;;
5363;SDS011;2705;41.410;2.160;2022-12-07T12:02:19;0.93;;;0.93;;
5363;SDS011;2705;41.410;2.160;2022-12-07T12:04:52;0.90;;;0.90;;
5363;SDS011;2705;41.410;2.160;2022-12-07T12:07:25;0.90;;;0.90;;
5363;SDS011;2705;41.410;2.160;2022-12-07T12:10:16;1.00;;;1.00;;
5363;SDS011;2705;41.410;2.160;2022-12-07T12:13:01;1.63;;;1.53;;
5363;SDS011;2705;41.410;2.160;2022-12-07T12:15:59;0.90;;;0.90;;
5363;SDS011;2705;41.410;2.160;2022-12-07T12:18:40;1.10;;;1.00;;
5363;SDS011;2705;41.410;2.160;2022-12-07T12:21:15;1.47;;;1.40;;
5363;SDS011;2705;41.410;2.160;2022-12-07T12:23:48;3.10;;;2.90;;
5363;SDS011;2705;41.410;2.160;2022-12-07T12:26:20;1.30;;;1.20;;
5363;SDS011;2705;41.410;2.160;2022-12-07T12:28:51;1.20;;;1.20;;
5363;SDS011;2705;41.410;2.160;2022-12-07T12:31:32;1.87;;;1.77;;
5363;SDS011;2705;41.410;2.160;2022-12-07T12:34:04;1.53;;;1.43;;
5363;SDS011;2705;41.410;2.160;2022-12-07T12:36:44;3.07;;;2.70;;
5363;SDS011;2705;41.410;2.160;2022-12-07T12:39:16;3.53;;;1.83;;
5363;SDS011;2705;41.410;2.160;2022-12-07T12:41:58;2.77;;;1.90;;
5363;SDS011;2705;41.410;2.160;2022-12-07T12:47:40;2.40;;;1.97;;
5363;SDS011;2705;41.410;2.160;2022-12-07T12:50:17;0.80;;;0.80;;
5363;SDS011;2705;41.410;2.160;2022-12-07T12:52:49;0.90;;;0.90;;
5363;SDS011;2705;41.410;2.160;2022-12-07T12:58:31;0.93;;;0.93;;
5363;SDS011;2705;41.410;2.160;2022-12-07T13:03:52;1.33;;;1.23;;
5363;SDS011;2705;41.410;2.160;2022-12-07T13:06:32;1.40;;;1.30;;
5363;SDS011;2705;41.410;2.160;2022-12-07T13:09:15;0.90;;;0.90;;
5363;SDS011;2705;41.410;2.160;2022-12-07T13:11:46;0.87;;;0.87;;
5363;SDS011;2705;41.410;2.160;2022-12-07T13:17:07;0.90;;;0.90;;
5363;SDS011;2705;41.410;2.160;2022-12-07T13:25:33;1.47;;;1.37;;
5363;SDS011;2705;41.410;2.160;2022-12-07T13:28:09;0.90;;;0.90;;
5363;SDS011;2705;41.410;2.160;2022-12-07T13:30:40;1.60;;;1.50;;
5363;SDS011;2705;41.410;2.160;2022-12-07T13:33:13;0.80;;;0.80;;
5363;SDS011;2705;41.410;2.160;2022-12-07T13:35:44;1.20;;;1.10;;
5363;SDS011;2705;41.410;2.160;2022-12-07T13:38:21;2.60;;;1.20;;
5363;SDS011;2705;41.410;2.160;2022-12-07T13:41:02;1.60;;;1.50;;
5363;SDS011;2705;41.410;2.160;2022-12-07T13:43:31;3.73;;;2.40;;
5363;SDS011;2705;41.410;2.160;2022-12-07T13:46:11;1.10;;;1.00;;
5363;SDS011;2705;41.410;2.160;2022-12-07T13:48:46;2.53;;;2.33;;
5363;SDS011;2705;41.410;2.160;2022-12-07T13:51:20;1.17;;;1.10;;
5363;SDS011;2705;41.410;2.160;2022-12-07T13:53:50;0.80;;;0.80;;
5363;SDS011;2705;41.410;2.160;2022-12-07T13:56:25;1.03;;;1.00;;
5363;SDS011;2705;41.410;2.160;2022-12-07T13:58:56;1.67;;;1.57;;
5363;SDS011;2705;41.410;2.160;2022-12-07T14:01:25;2.47;;;2.30;;
5363;SDS011;2705;41.410;2.160;2022-12-07T14:03:56;0.80;;;0.80;;
5363;SDS011;2705;41.410;2.160;2022-12-07T14:06:48;4.77;;;2.30;;
5363;SDS011;2705;41.410;2.160;2022-12-07T14:09:18;2.03;;;1.93;;
5363;SDS011;2705;41.410;2.160;2022-12-07T14:11:49;0.90;;;0.90;;
5363;SDS011;2705;41.410;2.160;2022-12-07T14:14:20;2.03;;;1.93;;
5363;SDS011;2705;41.410;2.160;2022-12-07T14:17:00;1.33;;;1.23;;
5363;SDS011;2705;41.410;2.160;2022-12-07T14:19:48;5.90;;;2.60;;
5363;SDS011;2705;41.410;2.160;2022-12-07T14:22:22;5.73;;;3.20;;
5363;SDS011;2705;41.410;2.160;2022-12-07T14:24:58;0.80;;;0.80;;
5363;SDS011;2705;41.410;2.160;2022-12-07T14:27:30;2.63;;;2.43;;
5363;SDS011;2705;41.410;2.160;2022-12-07T14:30:00;0.90;;;0.90;;
5363;SDS011;2705;41.410;2.160;2022-12-07T14:32:30;0.80;;;0.80;;
5363;SDS011;2705;41.410;2.160;2022-12-07T14:35:02;2.03;;;1.93;;
5363;SDS011;2705;41.410;2.160;2022-12-07T14:37:32;1.00;;;1.00;;
5363;SDS011;2705;41.410;2.160;2022-12-07T14:40:01;0.90;;;0.90;;
5363;SDS011;2705;41.410;2.160;2022-12-07T14:42:30;0.90;;;0.90;;
5363;SDS011;2705;41.410;2.160;2022-12-07T14:45:00;1.70;;;1.60;;
5363;SDS011;2705;41.410;2.160;2022-12-07T14:47:30;1.30;;;1.20;;
5363;SDS011;2705;41.410;2.160;2022-12-07T14:50:21;0.90;;;0.90;;
5363;SDS011;2705;41.410;2.160;2022-12-07T14:52:51;2.50;;;2.30;;
5363;SDS011;2705;41.410;2.160;2022-12-07T14:55:41;1.00;;;1.00;;
5363;SDS011;2705;41.410;2.160;2022-12-07T14:58:11;1.30;;;1.20;;
5363;SDS011;2705;41.410;2.160;2022-12-07T15:00:42;1.23;;;1.17;;
5363;SDS011;2705;41.410;2.160;2022-12-07T15:03:12;0.90;;;0.90;;
5363;SDS011;2705;41.410;2.160;2022-12-07T15:05:42;0.90;;;0.90;;
5363;SDS011;2705;41.410;2.160;2022-12-07T15:08:12;0.90;;;0.90;;
5363;SDS011;2705;41.410;2.160;2022-12-07T15:10:41;2.13;;;2.03;;
5363;SDS011;2705;41.410;2.160;2022-12-07T15:13:11;0.87;;;0.87;;
5363;SDS011;2705;41.410;2.160;2022-12-07T15:15:58;1.37;;;1.27;;
5363;SDS011;2705;41.410;2.160;2022-12-07T15:18:27;1.33;;;1.07;;
5363;SDS011;2705;41.410;2.160;2022-12-07T15:20:58;2.03;;;1.93;;
5363;SDS011;2705;41.410;2.160;2022-12-07T15:23:27;2.83;;;2.63;;
5363;SDS011;2705;41.410;2.160;2022-12-07T15:25:56;1.00;;;1.00;;
5363;SDS011;2705;41.410;2.160;2022-12-07T15:28:26;1.20;;;1.10;;
5363;SDS011;2705;41.410;2.160;2022-12-07T15:30:55;1.10;;;1.00;;
5363;SDS011;2705;41.410;2.160;2022-12-07T15:33:42;0.80;;;0.80;;
5363;SDS011;2705;41.410;2.160;2022-12-07T15:36:15;3.40;;;1.47;;
5363;SDS011;2705;41.410;2.160;2022-12-07T15:38:47;0.80;;;0.80;;
5363;SDS011;2705;41.410;2.160;2022-12-07T15:41:36;0.70;;;0.70;;
5363;SDS011;2705;41.410;2.160;2022-12-07T15:44:05;0.90;;;0.90;;
5363;SDS011;2705;41.410;2.160;2022-12-07T15:46:57;3.13;;;2.40;;
5363;SDS011;2705;41.410;2.160;2022-12-07T15:49:26;1.90;;;1.57;;
5363;SDS011;2705;41.410;2.160;2022-12-07T15:51:58;2.63;;;2.40;;
5363;SDS011;2705;41.410;2.160;2022-12-07T15:54:28;0.97;;;0.97;;
5363;SDS011;2705;41.410;2.160;2022-12-07T15:56:57;0.90;;;0.90;;